Time;durP1;ratioP1;P1;durP2;ratioP2;P2;SDS_P1;SDS_P2;PMS_P1;PMS_P2;Temp;Humidity;BMP_temperature;BMP_pressure;BME280_temperature;BME280_humidity;BME280_pressure;Samples;Min_cycle;Max_cycle;Signal;HPM_P1;HPM_P2
2022/04/01 00:01:33;;;;;;;28.65;11.98;;;5.70;99.90;;;5.53;98.59;99395.63;5204696;28;20053;-74
2022/04/01 00:04:05;;;;;;;24.58;12.05;;;5.70;99.90;;;5.48;98.00;99392.06;5205384;28;20061;-74
2022/04/01 00:06:37;;;;;;;26.45;12.32;;;5.70;99.90;;;5.40;97.62;99393.47;5207129;28;20052;-74
2022/04/01 00:09:09;;;;;;;26.10;11.40;;;5.60;99.90;;;5.40;98.28;99398.66;5204592;28;20041;-73
2022/04/01 00:11:43;;;;;;;25.17;11.70;;;5.60;99.90;;;5.39;98.26;99396.91;5205022;28;20059;-73
2022/04/01 00:14:15;;;;;;;28.08;11.57;;;5.60;99.90;;;5.42;98.94;99397.03;5203672;28;20049;-74
2022/04/01 00:16:47;;;;;;;29.77;12.27;;;5.60;99.90;;;5.42;98.03;99392.72;5205321;28;20509;-73
2022/04/01 00:19:20;;;;;;;33.78;14.43;;;5.60;99.90;;;5.37;98.12;99396.84;5205377;28;20051;-73
2022/04/01 00:21:52;;;;;;;31.20;13.55;;;5.50;99.90;;;5.32;98.14;99401.00;5205157;28;20080;-74
2022/04/01 00:24:24;;;;;;;30.92;13.77;;;5.50;99.90;;;5.31;98.23;99396.66;5206947;28;20524;-74
2022/04/01 00:26:58;;;;;;;28.08;12.00;;;5.50;99.90;;;5.33;98.63;99392.41;5205394;28;20049;-74
2022/04/01 00:29:30;;;;;;;27.63;11.93;;;5.50;99.90;;;5.35;98.82;99383.03;5204586;28;20136;-74
2022/04/01 00:32:02;;;;;;;25.90;11.70;;;5.50;99.90;;;5.35;98.63;99389.91;5204589;28;20055;-73
2022/04/01 00:34:36;;;;;;;26.40;11.60;;;5.50;99.90;;;5.35;98.43;99393.34;5205173;28;20045;-74
2022/04/01 00:37:08;;;;;;;25.92;12.55;;;5.50;99.90;;;5.37;98.81;99390.81;5205220;28;20060;-74
2022/04/01 00:39:40;;;;;;;25.38;11.70;;;5.50;99.90;;;5.40;98.89;99385.72;5204940;28;20059;-74
2022/04/01 00:42:14;;;;;;;24.35;11.45;;;5.50;99.90;;;5.39;98.61;99382.28;5205234;28;20056;-74
2022/04/01 00:44:46;;;;;;;27.65;11.75;;;5.50;99.90;;;5.41;98.95;99390.06;5207209;28;20225;-74
2022/04/01 00:47:18;;;;;;;29.08;12.82;;;5.60;99.90;;;5.42;98.99;99392.72;5204621;28;20053;-74
2022/04/01 00:49:50;;;;;;;25.92;11.57;;;5.60;99.90;;;5.47;99.17;99389.41;5204710;28;20133;-74
2022/04/01 00:52:23;;;;;;;30.00;12.48;;;5.60;99.90;;;5.47;99.31;99389.41;5204764;28;20053;-73
2022/04/01 00:54:55;;;;;;;25.98;11.07;;;5.60;99.90;;;5.47;99.40;99390.28;5204807;28;20051;-74
2022/04/01 00:57:30;;;;;;;27.08;11.88;;;5.60;99.90;;;5.44;98.73;99390.19;5205106;28;20060;-74
2022/04/01 01:00:02;;;;;;;24.95;11.82;;;5.60;99.90;;;5.40;98.98;99388.31;5207709;28;20408;-74
2022/04/01 01:02:35;;;;;;;26.63;11.98;;;5.60;99.90;;;5.39;99.01;99392.59;5211418;28;20401;-74
2022/04/01 01:05:08;;;;;;;25.20;11.27;;;5.60;99.90;;;5.43;99.60;99393.59;5208860;28;20049;-75
2022/04/01 01:07:42;;;;;;;25.77;11.88;;;5.60;99.90;;;5.45;99.65;99397.09;5208453;28;20195;-75
2022/04/01 01:10:17;;;;;;;28.38;13.05;;;5.60;99.90;;;5.44;99.60;99391.06;5208793;28;20095;-74
2022/04/01 01:12:51;;;;;;;27.58;12.60;;;5.60;99.90;;;5.43;99.37;99394.47;5209234;28;20049;-74
2022/04/01 01:15:26;;;;;;;26.17;11.85;;;5.60;99.90;;;5.47;99.40;99402.31;5208215;28;20089;-74
2022/04/01 01:17:58;;;;;;;29.17;12.38;;;5.60;99.90;;;5.48;99.54;99402.41;5209094;28;20418;-74
2022/04/01 01:20:30;;;;;;;28.60;11.77;;;5.60;99.90;;;5.50;100.00;99390.38;5208607;28;20429;-74
2022/04/01 01:23:02;;;;;;;23.13;11.57;;;5.60;99.90;;;5.54;99.87;99399.09;5210677;28;20055;-75
2022/04/01 01:25:37;;;;;;;26.17;12.60;;;5.70;99.90;;;5.58;100.00;99399.25;5207941;28;20049;-74
2022/04/01 01:28:09;;;;;;;26.92;11.70;;;5.70;99.90;;;5.61;100.00;99399.38;5208062;28;20050;-74
2022/04/01 01:30:41;;;;;;;27.73;11.82;;;5.70;99.90;;;5.61;100.00;99398.50;5208317;28;20050;-75
2022/04/01 01:33:14;;;;;;;25.15;11.70;;;5.70;99.90;;;5.63;100.00;99396.84;5208273;28;20132;-74
2022/04/01 01:35:46;;;;;;;28.13;11.15;;;5.80;99.90;;;5.64;100.00;99398.59;5207872;28;20050;-74
2022/04/01 01:38:19;;;;;;;29.75;12.23;;;5.80;99.90;;;5.63;100.00;99394.25;5208449;28;20057;-74
2022/04/01 01:40:53;;;;;;;25.40;11.65;;;5.80;99.90;;;5.60;99.75;99392.41;5211046;28;20057;-74
2022/04/01 01:43:25;;;;;;;28.45;12.73;;;5.80;99.90;;;5.63;99.81;99400.28;5208146;28;20045;-74
2022/04/01 01:45:57;;;;;;;26.63;11.57;;;5.80;99.90;;;5.63;99.75;99394.25;5208209;28;20049;-74
2022/04/01 01:48:29;;;;;;;33.25;13.27;;;5.80;99.90;;;5.62;99.95;99390.78;5208060;28;20504;-74
2022/04/01 01:56:44;;;;;;;17.83;8.57;;;5.70;99.90;;;5.48;98.37;99401.47;5207970;28;20090;-73
2022/04/01 01:59:16;;;;;;;17.67;8.75;;;5.70;99.90;;;5.36;96.68;99401.97;5208000;28;20049;-74
2022/04/01 02:01:50;;;;;;;15.82;8.18;;;5.60;99.90;;;5.37;96.68;99402.03;5209091;28;20337;-74
2022/04/01 02:04:23;;;;;;;15.27;7.72;;;5.60;99.90;;;5.36;96.68;99402.84;5207802;28;20056;-74
2022/04/01 02:06:55;;;;;;;14.68;7.80;;;5.60;99.90;;;5.37;96.35;99401.16;5207678;28;20099;-74
2022/04/01 02:09:27;;;;;;;11.45;6.35;;;5.60;99.90;;;5.38;96.52;99405.47;5207243;28;20045;-73
2022/04/01 02:12:01;;;;;;;12.60;7.05;;;5.60;99.90;;;5.38;95.96;99400.31;5207667;28;20056;-74
2022/04/01 02:14:34;;;;;;;11.32;6.45;;;5.60;99.90;;;5.38;95.38;99400.31;5207520;28;20041;-74
2022/04/01 02:17:06;;;;;;;12.70;6.57;;;5.60;99.90;;;5.39;95.56;99397.78;5207562;28;20132;-74
2022/04/01 02:19:38;;;;;;;12.82;7.00;;;5.60;99.90;;;5.40;95.08;99406.41;5209509;28;20055;-74
2022/04/01 02:22:10;;;;;;;11.52;6.18;;;5.50;99.90;;;5.40;94.55;99409.88;5206975;28;20049;-74
2022/04/01 02:24:42;;;;;;;10.27;6.18;;;5.60;99.90;;;5.40;94.57;99409.88;5207343;28;20060;-73
2022/04/01 02:27:17;;;;;;;11.77;6.03;;;5.50;99.90;;;5.37;94.27;99411.50;5207491;28;20375;-74
2022/04/01 02:29:50;;;;;;;11.50;6.43;;;5.60;99.90;;;5.35;94.77;99410.56;5206903;28;20092;-74
2022/04/01 02:32:23;;;;;;;10.25;5.78;;;5.50;99.90;;;5.34;94.05;99411.38;5207394;28;20061;-73
2022/04/01 02:34:55;;;;;;;10.20;5.45;;;5.50;99.90;;;5.34;94.34;99417.41;5207130;28;20049;-74
2022/04/01 02:37:27;;;;;;;10.73;6.10;;;5.50;99.90;;;5.32;94.17;99408.75;5207322;28;20045;-74
2022/04/01 02:39:59;;;;;;;10.82;5.80;;;5.50;99.90;;;5.30;94.39;99413.00;5209688;28;20053;-73
2022/04/01 02:42:33;;;;;;;10.60;6.07;;;5.50;99.90;;;5.30;93.94;99420.75;5207007;28;20052;-73
2022/04/01 02:45:06;;;;;;;11.05;6.30;;;5.50;99.90;;;5.33;94.24;99417.38;5207194;28;20077;-74
2022/04/01 02:47:38;;;;;;;10.55;5.75;;;5.50;99.90;;;5.32;94.48;99419.06;5207022;28;20676;-73
2022/04/01 02:50:10;;;;;;;10.93;6.00;;;5.50;99.90;;;5.27;93.65;99417.16;5206772;28;20473;-74
2022/04/01 02:52:42;;;;;;;10.75;6.15;;;5.50;99.90;;;5.26;94.15;99423.16;5206777;28;20054;-74
2022/04/01 02:55:14;;;;;;;9.18;5.40;;;5.50;99.90;;;5.26;93.72;99426.63;5206848;28;20049;-74
2022/04/01 02:57:47;;;;;;;10.35;5.13;;;5.40;99.90;;;5.28;94.10;99426.66;5208799;28;20505;-74
2022/04/01 03:00:21;;;;;;;8.60;5.05;;;5.50;99.90;;;5.25;93.51;99424.00;5206610;28;20128;-73
2022/04/01 03:02:53;;;;;;;9.70;5.75;;;5.40;99.90;;;5.23;92.92;99425.66;5206517;28;20053;-74
2022/04/01 03:05:25;;;;;;;8.38;5.20;;;5.40;99.90;;;5.16;92.48;99432.31;5206456;28;20051;-74
2022/04/01 03:07:57;;;;;;;9.35;5.15;;;5.40;99.90;;;5.10;92.47;99435.56;5206641;28;20577;-73
2022/04/01 03:10:30;;;;;;;10.43;5.50;;;5.30;99.90;;;5.08;92.47;99431.13;5206473;28;20041;-75
2022/04/01 03:13:07;;;;;;;9.55;4.65;;;5.30;99.90;;;5.11;92.86;99441.59;5206122;28;20056;-74
2022/04/01 03:15:39;;;;;;;9.05;5.03;;;5.30;99.90;;;5.06;91.85;99437.97;5206837;28;20475;-75
2022/04/01 03:18:11;;;;;;;9.52;5.35;;;5.30;99.90;;;5.05;91.97;99442.25;5207462;28;20053;-73
2022/04/01 03:20:45;;;;;;;8.48;5.35;;;5.30;99.90;;;5.02;91.94;99441.25;5205863;28;20067;-74
2022/04/01 03:23:17;;;;;;;10.63;5.30;;;5.30;99.90;;;5.03;92.31;99443.91;5205109;28;20136;-74
2022/04/01 03:25:50;;;;;;;8.45;5.15;;;5.20;99.90;;;5.00;91.45;99448.97;5205930;28;20055;-73
2022/04/01 03:28:24;;;;;;;8.93;4.65;;;5.30;99.90;;;4.94;91.33;99448.75;5205865;28;20045;-74
2022/04/01 03:30:56;;;;;;;10.23;5.53;;;5.20;99.90;;;4.92;90.91;99446.94;5205797;28;20054;-74
2022/04/01 03:33:28;;;;;;;8.35;5.13;;;5.20;99.90;;;4.89;91.18;99450.31;5205638;28;20050;-74
2022/04/01 03:36:00;;;;;;;8.40;5.15;;;5.20;99.90;;;4.90;90.87;99452.06;5207740;28;20049;-73
2022/04/01 03:38:32;;;;;;;9.10;5.00;;;5.20;99.90;;;4.83;90.33;99455.25;5206158;28;20045;-75
2022/04/01 03:41:05;;;;;;;8.48;4.80;;;5.10;99.90;;;4.83;90.24;99457.81;5205480;28;20133;-74
2022/04/01 03:43:40;;;;;;;8.52;4.68;;;5.10;99.90;;;4.76;89.28;99466.13;5205659;28;20049;-74
2022/04/01 03:46:15;;;;;;;10.73;5.38;;;5.10;99.90;;;4.71;88.97;99465.13;5206043;28;20391;-74
2022/04/01 03:48:55;;;;;;;8.98;5.38;;;5.00;99.90;;;4.72;89.45;99469.44;5205899;28;20056;-74
2022/04/01 03:51:30;;;;;;;7.60;4.18;;;5.00;99.90;;;4.72;89.47;99459.13;5205809;28;20045;-74
2022/04/01 03:54:05;;;;;;;8.82;5.95;;;5.00;99.90;;;4.71;89.13;99472.88;5206337;28;20056;-74
2022/04/01 03:56:39;;;;;;;9.02;5.15;;;5.00;99.90;;;4.69;89.65;99477.06;5205807;28;20153;-74
2022/04/01 03:59:12;;;;;;;9.88;5.30;;;5.00;99.90;;;4.66;89.35;99476.97;5205592;28;20050;-75
2022/04/01 04:01:44;;;;;;;10.15;5.03;;;5.00;99.90;;;4.65;89.41;99475.22;5204997;28;20052;-73
2022/04/01 04:04:18;;;;;;;8.68;4.93;;;5.00;99.90;;;4.70;89.32;99482.31;5205387;28;20133;-74
2022/04/01 04:06:51;;;;;;;9.13;4.93;;;5.00;99.90;;;4.73;89.40;99478.94;5205474;28;20076;-74
2022/04/01 04:09:24;;;;;;;10.27;4.95;;;5.00;99.90;;;4.75;88.98;99488.50;5205477;28;20065;-75
2022/04/01 04:11:56;;;;;;;9.63;4.88;;;5.00;99.90;;;4.71;88.91;99489.22;5205309;28;20055;-74
2022/04/01 04:14:32;;;;;;;10.45;5.03;;;5.00;99.90;;;4.70;89.21;99490.06;5206291;28;20050;-74
2022/04/01 04:17:12;;;;;;;9.20;5.03;;;5.00;99.90;;;4.65;88.45;99501.03;5205368;28;20057;-75
2022/04/01 04:19:52;;;;;;;11.15;5.32;;;4.90;99.90;;;4.66;88.25;99497.63;5204920;28;20083;-73
2022/04/01 04:22:31;;;;;;;9.63;4.63;;;4.90;99.90;;;4.63;88.29;99504.44;5205329;28;20053;-74
2022/04/01 04:25:10;;;;;;;7.85;4.53;;;4.90;99.90;;;4.62;88.63;99492.31;5204889;28;20057;-74
2022/04/01 04:27:52;;;;;;;9.73;4.57;;;4.90;99.90;;;4.65;88.44;99493.28;5205198;28;20053;-74
2022/04/01 04:30:37;;;;;;;9.68;4.93;;;4.90;99.90;;;4.61;88.29;99503.47;5504073;23;20042;-70
2022/04/01 04:33:11;;;;;;;8.70;4.53;;;4.90;99.90;;;4.60;88.14;99511.16;5181204;28;20045;-69
2022/04/01 04:35:45;;;;;;;9.30;4.60;;;4.90;99.90;;;4.63;87.68;99514.75;5183367;28;20100;-70
2022/04/01 04:38:21;;;;;;;7.90;4.53;;;4.90;99.90;;;4.59;87.68;99520.63;5184429;28;20483;-69
2022/04/01 04:40:54;;;;;;;8.05;4.72;;;4.80;99.90;;;4.56;86.89;99528.25;5184244;28;20080;-69
2022/04/01 04:43:26;;;;;;;9.43;4.97;;;4.80;99.90;;;4.55;86.80;99526.47;5177953;28;20050;-69
2022/04/01 04:46:00;;;;;;;7.60;4.28;;;4.80;99.90;;;4.46;85.75;99526.13;5183885;28;20045;-69
2022/04/01 04:48:34;;;;;;;8.80;4.90;;;4.80;99.90;;;4.45;86.33;99529.53;5184317;28;20483;-70
2022/04/01 04:51:08;;;;;;;7.18;4.22;;;4.70;99.90;;;4.44;85.63;99530.34;5183917;28;20042;-69
2022/04/01 04:53:40;;;;;;;9.43;5.13;;;4.70;99.90;;;4.39;85.95;99531.88;5184002;28;20061;-69
2022/04/01 04:56:14;;;;;;;8.57;4.72;;;4.70;99.90;;;4.41;85.82;99542.25;5184084;28;20421;-70
2022/04/01 04:58:47;;;;;;;9.27;5.40;;;4.70;99.90;;;4.41;85.42;99537.09;5181542;28;20050;-70
2022/04/01 05:01:34;;;;;;;8.00;4.38;;;4.70;99.90;;;4.41;85.50;99537.97;5183534;28;20086;-69
2022/04/01 05:04:29;;;;;;;9.82;4.80;;;4.70;99.90;;;4.41;85.55;99543.13;5184428;28;20573;-70
2022/04/01 05:07:14;;;;;;;8.23;4.38;;;4.70;99.90;;;4.38;83.90;99548.19;5183785;28;20054;-70
2022/04/01 05:09:56;;;;;;;9.52;4.47;;;4.70;99.90;;;4.30;83.79;99549.53;5183874;28;20060;-71
2022/04/01 05:12:36;;;;;;;10.45;5.28;;;4.60;99.90;;;4.25;83.83;99558.81;5183820;28;20060;-70
2022/04/01 05:15:09;;;;;;;8.02;4.65;;;4.60;99.90;;;4.26;83.68;99564.03;5183837;28;20050;-69
2022/04/01 05:17:54;;;;;;;9.75;5.05;;;4.60;99.90;;;4.28;84.07;99579.56;5183827;28;20060;-69
2022/04/01 05:20:29;;;;;;;10.15;5.22;;;4.60;99.90;;;4.18;82.49;99574.88;5183401;28;20054;-69
2022/04/01 05:23:12;;;;;;;7.65;4.78;;;4.50;99.90;;;4.13;82.72;99584.13;5183412;28;20057;-69
2022/04/01 05:25:47;;;;;;;8.50;5.07;;;4.50;99.90;;;4.16;83.25;99582.53;5183913;28;20050;-70
2022/04/01 05:28:23;;;;;;;8.32;4.68;;;4.50;99.90;;;4.13;82.69;99589.28;5184211;28;20052;-70
2022/04/01 05:31:04;;;;;;;9.55;4.68;;;4.50;99.90;;;4.12;82.69;99593.56;5183446;28;20100;-71
2022/04/01 05:33:47;;;;;;;10.43;4.57;;;4.50;99.90;;;4.08;82.28;99595.09;5181506;28;20391;-69
2022/04/01 05:36:20;;;;;;;8.70;4.90;;;4.50;99.90;;;4.11;82.94;99601.19;5183411;28;20096;-70
2022/04/01 05:38:54;;;;;;;9.90;4.78;;;4.50;99.90;;;4.05;81.97;99610.47;5183854;28;20054;-70
2022/04/01 05:41:27;;;;;;;9.98;5.70;;;4.50;99.90;;;4.05;82.20;99613.06;5183483;28;20489;-71
2022/04/01 05:43:59;;;;;;;10.82;5.45;;;4.40;99.90;;;4.01;81.84;99618.88;5183631;28;20056;-70
2022/04/01 05:46:31;;;;;;;10.38;5.28;;;4.40;99.90;;;4.01;81.80;99626.63;5186622;28;20498;-70
2022/04/01 05:49:06;;;;;;;8.00;5.05;;;4.40;99.90;;;4.02;81.63;99623.22;5187423;28;20052;-68
2022/04/01 05:51:38;;;;;;;9.85;5.18;;;4.40;99.90;;;4.04;82.07;99634.50;5187048;28;20404;-69
2022/04/01 05:54:12;;;;;;;11.50;5.18;;;4.40;99.90;;;4.05;81.97;99633.69;5187278;28;20050;-71
2022/04/01 05:56:46;;;;;;;7.97;4.50;;;4.40;99.90;;;4.06;81.88;99638.00;5186810;28;20049;-70
2022/04/01 05:59:20;;;;;;;8.43;4.82;;;4.40;99.90;;;4.03;81.29;99637.88;5187233;28;20112;-72
2022/04/01 06:02:12;;;;;;;7.93;4.55;;;4.40;99.90;;;3.99;81.24;99638.56;5186602;28;20052;-72
2022/04/01 06:05:18;;;;;;;9.38;4.55;;;4.40;99.90;;;4.03;81.21;99643.03;5187055;28;20127;-71
2022/04/01 06:08:00;;;;;;;8.93;4.72;;;4.40;99.90;;;3.98;80.26;99647.13;5186968;28;20143;-73
2022/04/01 06:10:43;;;;;;;9.60;4.88;;;4.40;99.90;;;3.96;80.30;99653.91;5186814;28;20129;-72
2022/04/01 06:13:42;;;;;;;8.88;4.25;;;4.30;99.90;;;4.01;80.43;99654.97;5186499;28;20049;-72
2022/04/01 06:16:26;;;;;;;7.47;4.40;;;4.40;99.90;;;4.04;80.69;99668.03;5178171;28;20057;-66
2022/04/01 06:19:19;;;;;;;7.53;4.60;;;4.40;99.90;;;4.06;80.35;99668.97;5185970;28;20418;-66
2022/04/01 06:22:03;;;;;;;8.98;4.93;;;4.40;99.90;;;4.08;80.67;99672.47;5186404;28;20060;-66
2022/04/01 06:24:47;;;;;;;6.57;4.03;;;4.40;99.90;;;4.06;79.45;99679.28;5187122;28;20050;-65
2022/04/01 06:27:22;;;;;;;6.65;4.18;;;4.40;99.90;;;4.09;80.15;99679.38;5186668;28;20056;-66
2022/04/01 06:30:06;;;;;;;8.82;4.75;;;4.40;99.90;;;4.35;84.85;99682.19;5186468;28;20514;-65
2022/04/01 06:32:52;;;;;;;8.80;4.90;;;4.60;99.90;;;4.70;84.01;99687.94;5186204;28;20042;-67
2022/04/01 06:35:29;;;;;;;6.80;4.10;;;5.00;99.90;;;4.68;78.50;99685.28;5186023;28;20062;-65
2022/04/01 06:38:05;;;;;;;7.07;4.25;;;5.10;99.90;;;4.57;78.02;99700.34;5185108;28;20565;-65
2022/04/01 06:40:48;;;;;;;5.97;4.13;;;5.00;99.90;;;4.45;77.37;99704.13;5183242;28;20057;-65
2022/04/01 06:43:20;;;;;;;9.50;4.68;;;4.90;99.90;;;4.35;77.54;99708.00;5172309;28;20050;-66
2022/04/01 06:45:53;;;;;;;7.15;4.22;;;4.80;99.90;;;4.22;77.76;99706.59;5180555;28;20045;-66
2022/04/01 06:48:25;;;;;;;6.30;4.07;;;4.70;99.90;;;4.19;78.50;99716.78;5184846;28;20056;-66
2022/04/01 06:50:58;;;;;;;6.43;3.75;;;4.60;99.90;;;4.18;78.73;99711.56;5185919;28;20049;-65
2022/04/01 06:53:32;;;;;;;7.22;4.05;;;4.60;99.90;;;4.09;77.75;99728.41;5186285;28;20050;-65
2022/04/01 06:56:04;;;;;;;7.35;3.83;;;4.50;99.90;;;3.99;77.47;99712.47;5185260;28;20056;-66
2022/04/01 06:58:36;;;;;;;8.20;3.88;;;4.50;99.90;;;3.96;77.47;99723.50;5186140;28;20053;-66
2022/04/01 07:01:10;;;;;;;7.53;3.85;;;4.40;99.90;;;3.96;77.91;99730.38;5186059;28;20056;-67
2022/04/01 07:03:42;;;;;;;8.07;5.03;;;4.40;99.90;;;3.98;78.89;99734.81;5185703;28;20064;-64
2022/04/01 07:06:15;;;;;;;7.78;4.40;;;4.40;99.90;;;3.98;78.97;99742.53;5186503;28;20056;-66
2022/04/01 07:08:49;;;;;;;6.57;3.47;;;4.30;99.90;;;4.85;90.54;99729.88;5186044;28;20384;-72
2022/04/01 07:11:22;;;;;;;4.88;2.95;;;4.90;99.90;;;5.84;87.69;99744.03;5186129;28;20049;-69
2022/04/01 07:13:54;;;;;;;7.43;2.88;;;5.90;99.90;;;6.59;79.98;99731.22;5185943;28;20076;-72
2022/04/01 07:16:26;;;;;;;6.00;3.25;;;6.70;99.90;;;7.22;74.58;99741.88;5186364;28;20057;-72
2022/04/01 07:18:58;;;;;;;6.15;3.30;;;7.40;99.90;;;7.41;70.04;99745.03;5186496;28;20132;-64
2022/04/01 07:21:31;;;;;;;5.63;3.42;;;7.80;99.90;;;6.91;66.81;99741.72;5185973;28;20054;-67
2022/04/01 07:24:06;;;;;;;5.93;3.13;;;7.50;98.10;;;6.40;68.07;99747.81;5185948;28;20046;-65
2022/04/01 07:26:38;;;;;;;;;;;7.10;99.20;;;5.96;69.11;99754.88;5186784;28;20469;-65
2022/04/01 07:29:10;;;;;;;6.10;3.10;;;6.60;99.70;;;5.59;69.76;99757.75;5186115;28;19928;-67
2022/04/01 07:34:39;;;;;;;5.47;3.05;;;5.90;99.90;;;5.11;71.82;99760.19;5186148;28;20061;-66
2022/04/01 07:37:12;;;;;;;6.38;3.55;;;5.60;99.90;;;4.99;72.55;99762.28;5186326;28;20052;-66
2022/04/01 07:39:46;;;;;;;6.00;3.20;;;5.40;99.90;;;4.82;72.31;99768.44;5186005;28;20053;-65
2022/04/01 07:42:20;;;;;;;6.30;2.95;;;5.30;99.90;;;4.75;73.44;99761.28;5185787;28;20486;-66
2022/04/01 07:44:52;;;;;;;5.68;3.47;;;5.10;99.90;;;4.58;73.09;99779.53;5185961;28;20061;-66
2022/04/01 07:47:25;;;;;;;6.30;3.25;;;5.00;99.90;;;4.51;73.10;99777.50;5185903;28;20054;-64
2022/04/01 07:49:57;;;;;;;5.05;3.38;;;4.90;99.90;;;4.45;73.56;99776.38;5185813;28;20045;-67
2022/04/01 07:52:29;;;;;;;5.05;2.95;;;4.80;99.90;;;4.42;73.47;99777.09;5185653;28;20351;-67
2022/04/01 07:55:03;;;;;;;6.25;3.40;;;4.80;99.90;;;4.47;74.12;99791.09;5185840;28;20046;-65
2022/04/01 07:57:35;;;;;;;5.50;2.75;;;4.80;99.90;;;4.43;73.87;99791.75;5185453;28;20054;-66
2022/04/01 08:00:10;;;;;;;5.75;3.38;;;4.70;99.90;;;4.37;73.73;99796.69;5185385;28;20049;-65
2022/04/01 08:02:42;;;;;;;5.55;3.08;;;4.70;99.90;;;4.41;73.65;99795.97;5185116;28;20060;-66
2022/04/01 08:05:16;;;;;;;5.68;3.17;;;4.70;99.90;;;4.37;72.62;99804.44;5185466;28;20046;-65
2022/04/01 08:07:48;;;;;;;4.65;2.58;;;4.70;99.90;;;4.28;72.38;99806.59;5185160;28;20049;-64
2022/04/01 08:10:21;;;;;;;5.00;3.17;;;4.60;99.90;;;4.29;73.05;99816.09;5185438;28;20140;-65
2022/04/01 08:12:54;;;;;;;4.45;2.88;;;4.60;99.90;;;4.29;73.39;99816.09;5184974;28;20049;-66
2022/04/01 08:15:26;;;;;;;4.10;2.83;;;4.60;99.90;;;4.27;73.21;99817.72;5185515;28;20046;-64
2022/04/01 08:17:57;;;;;;;4.85;2.65;;;4.60;99.90;;;4.27;73.95;99817.72;5185525;28;20156;-65
2022/04/01 08:20:30;;;;;;;3.20;2.45;;;4.60;99.90;;;4.27;73.43;99818.59;5185290;28;20491;-65
2022/04/01 08:23:02;;;;;;;3.58;2.63;;;4.60;99.90;;;4.26;72.51;99823.72;5184733;28;20049;-65
2022/04/01 08:25:35;;;;;;;4.55;2.42;;;4.60;99.90;;;4.28;72.88;99824.66;5185411;28;20494;-65
2022/04/01 08:28:08;;;;;;;3.67;2.70;;;4.60;99.90;;;4.32;72.75;99821.41;5185245;28;20502;-65
2022/04/01 08:30:41;;;;;;;3.92;2.55;;;4.60;99.90;;;4.36;72.92;99823.28;5184959;28;20077;-65
2022/04/01 08:33:17;;;;;;;4.25;2.45;;;4.60;99.90;;;4.45;73.14;99836.59;5185122;28;20403;-65
2022/04/01 08:35:49;;;;;;;5.20;2.50;;;4.60;99.90;;;4.36;71.14;99833.59;5185084;28;20049;-65
2022/04/01 08:38:21;;;;;;;4.18;2.72;;;4.70;99.90;;;4.38;71.95;99838.84;5184891;28;20060;-65
2022/04/01 08:40:55;;;;;;;4.07;2.85;;;4.70;99.90;;;4.39;71.28;99843.19;5185240;28;20513;-66
2022/04/01 08:43:29;;;;;;;4.18;2.72;;;4.70;99.90;;;4.38;71.05;99842.31;5184980;28;20050;-67
2022/04/01 08:46:05;;;;;;;5.03;2.78;;;4.70;99.90;;;4.43;71.47;99851.13;5185299;28;20053;-65
2022/04/01 08:48:38;;;;;;;4.65;2.75;;;4.70;99.90;;;4.49;71.48;99851.38;5185131;28;20053;-67
2022/04/01 08:51:10;;;;;;;4.38;2.83;;;4.70;99.90;;;4.58;71.21;99858.66;5185067;28;20530;-65
2022/04/01 08:53:44;;;;;;;4.53;2.53;;;4.80;99.90;;;4.52;69.57;99860.97;5185008;28;20054;-66
2022/04/01 08:56:20;;;;;;;4.32;2.50;;;4.80;99.90;;;4.51;70.25;99865.25;5185060;28;20054;-64
2022/04/01 08:58:53;;;;;;;4.43;3.00;;;4.80;99.90;;;4.54;70.38;99865.38;5184919;28;20066;-65
2022/04/01 09:01:25;;;;;;;4.47;2.90;;;4.80;99.90;;;4.66;70.48;99874.47;5184762;28;20404;-65
2022/04/01 09:03:57;;;;;;;6.90;2.58;;;4.90;99.90;;;4.76;70.30;99871.47;5185099;28;20056;-65
2022/04/01 09:06:30;;;;;;;3.35;2.17;;;4.90;99.90;;;4.74;69.82;99863.66;5184607;28;20062;-66
2022/04/01 09:09:02;;;;;;;3.63;2.38;;;5.00;99.90;;;4.77;69.75;99878.41;5184658;28;20050;-64
2022/04/01 09:11:36;;;;;;;3.92;2.30;;;5.00;99.90;;;5.07;78.15;99874.53;5184420;28;20048;-66
2022/04/01 09:14:08;;;;;;;4.38;2.55;;;5.10;99.90;;;6.21;82.51;99870.50;5184699;28;20414;-66
2022/04/01 09:16:41;;;;;;;5.53;2.70;;;6.20;99.90;;;6.39;72.96;99870.31;5184828;28;20046;-66
2022/04/01 09:19:15;;;;;;;3.92;2.53;;;6.60;99.90;;;6.13;66.70;99879.69;5184945;28;20179;-66
2022/04/01 09:21:49;;;;;;;4.50;2.78;;;6.50;99.20;;;5.84;66.55;99875.06;5188445;28;20049;-64
2022/04/01 09:24:21;;;;;;;3.75;2.65;;;6.30;98.50;;;5.71;67.56;99882.34;5188459;28;20046;-65
2022/04/01 09:26:56;;;;;;;4.80;2.60;;;6.10;99.60;;;5.59;66.18;99888.72;5188576;28;20046;-66
2022/04/01 09:29:34;;;;;;;3.80;2.35;;;6.00;98.80;;;5.50;66.82;99891.81;5188330;28;20054;-65
2022/04/01 09:32:08;;;;;;;3.65;2.05;;;5.90;99.50;;;5.48;67.35;99896.06;5188355;28;20450;-65
2022/04/01 09:34:40;;;;;;;4.32;2.88;;;5.80;99.90;;;5.42;67.39;99891.53;5188591;28;20058;-66
2022/04/01 09:37:12;;;;;;;4.50;2.55;;;5.70;99.90;;;5.33;67.10;99892.81;5188608;28;20410;-65
2022/04/01 09:39:45;;;;;;;5.18;2.85;;;5.70;99.90;;;5.25;66.65;99899.38;5188416;28;20046;-65
2022/04/01 09:42:20;;;;;;;4.55;2.63;;;5.50;99.90;;;5.17;67.60;99897.38;5187950;28;20498;-67
2022/04/01 09:44:58;;;;;;;4.20;2.33;;;5.50;99.90;;;5.08;66.61;99896.09;5188163;28;20137;-65
2022/04/01 09:47:37;;;;;;;4.78;2.78;;;5.40;99.60;;;4.98;66.59;99905.16;5188345;28;20049;-65
2022/04/01 09:50:15;;;;;;;5.18;3.08;;;5.30;99.90;;;4.86;65.74;99905.50;5187585;28;20053;-65
2022/04/01 09:52:49;;;;;;;4.55;2.88;;;5.20;99.20;;;4.79;66.89;99900.00;5188108;28;20373;-66
2022/04/01 09:55:21;;;;;;;5.38;2.90;;;5.10;99.90;;;4.86;67.29;99909.78;5188337;28;20046;-65
2022/04/01 09:57:54;;;;;;;5.93;2.83;;;5.10;99.90;;;4.83;67.66;99910.56;5188354;28;20052;-67
2022/04/01 10:00:26;;;;;;;2.83;1.90;;;5.10;99.90;;;4.89;68.27;99923.72;5187764;28;20056;-64
2022/04/01 10:02:59;;;;;;;6.05;2.97;;;5.10;99.90;;;4.87;68.52;99917.59;5187797;28;20056;-66
2022/04/01 10:05:31;;;;;;;4.18;2.53;;;5.10;99.90;;;4.86;69.18;99926.16;5188044;28;20053;-65
2022/04/01 10:08:06;;;;;;;3.67;2.65;;;5.10;99.90;;;4.87;67.90;99927.03;5187782;28;20050;-66
2022/04/01 10:10:40;;;;;;;3.40;2.38;;;5.10;99.90;;;4.85;68.38;99923.53;5187430;28;20054;-66
2022/04/01 10:13:22;;;;;;;4.95;2.80;;;5.10;99.90;;;4.91;68.19;99928.97;5187323;28;20045;-63
2022/04/01 10:15:55;;;;;;;5.53;2.72;;;5.10;99.90;;;4.82;65.67;99936.28;5188141;28;20056;-68
2022/04/01 10:18:28;;;;;;;4.47;2.78;;;5.10;99.50;;;4.62;65.77;99935.41;5187906;28;20049;-66
2022/04/01 10:21:03;;;;;;;4.88;2.53;;;5.00;99.30;;;4.70;66.26;99943.50;5187545;28;20056;-65
2022/04/01 10:23:43;;;;;;;3.97;2.53;;;5.00;99.90;;;4.76;67.01;99938.59;5187239;28;20046;-65
2022/04/01 10:26:16;;;;;;;4.88;2.63;;;5.00;99.90;;;4.88;67.67;99941.72;5187583;28;20052;-65
2022/04/01 10:28:52;;;;;;;4.65;2.72;;;5.10;99.90;;;4.95;67.69;99941.16;5187498;28;20405;-64
2022/04/01 10:31:25;;;;;;;4.72;3.15;;;5.10;99.90;;;4.95;68.02;99950.63;5186358;28;20050;-67
2022/04/01 10:34:22;;;;;;;3.85;2.40;;;5.20;99.90;;;5.01;68.28;99945.72;5186944;28;20045;-66
2022/04/01 10:36:57;;;;;;;3.63;2.38;;;5.20;99.90;;;5.06;68.70;99955.44;5187218;28;20401;-66
2022/04/01 10:39:29;;;;;;;5.88;2.75;;;5.20;99.90;;;5.06;68.49;99955.44;5187352;28;20054;-66
2022/04/01 10:42:12;;;;;;;3.45;2.20;;;5.30;99.90;;;5.13;68.34;99959.16;5186992;28;20468;-65
2022/04/01 10:44:52;;;;;;;4.35;2.38;;;5.30;99.90;;;5.11;68.04;99964.28;5187178;28;20455;-64
2022/04/01 10:53:41;;;;;;;3.95;2.42;;;5.30;99.90;;;4.98;66.29;99982.63;5186621;28;20423;-65
2022/04/01 10:56:31;;;;;;;4.72;2.40;;;5.30;99.70;;;4.86;65.84;99984.69;5186721;28;20053;-66
2022/04/01 10:59:15;;;;;;;4.70;2.67;;;5.10;99.70;;;4.88;66.21;99985.63;5186600;28;20057;-65
2022/04/01 11:02:08;;;;;;;3.92;2.40;;;5.10;99.80;;;4.94;66.43;99990.19;5186291;28;20054;-66
2022/04/01 11:04:42;;;;;;;4.20;2.35;;;5.10;99.90;;;4.85;65.45;99980.34;5186505;28;20052;-66
2022/04/01 11:07:33;;;;;;;3.28;2.20;;;5.10;99.50;;;4.84;65.69;99978.56;5186981;28;20056;-65
2022/04/01 11:10:09;;;;;;;3.72;2.60;;;5.10;99.60;;;4.93;65.57;99989.28;5186563;28;20454;-64
2022/04/01 11:12:50;;;;;;;3.15;2.17;;;5.10;99.90;;;5.02;65.84;99989.72;5186531;28;20074;-67
2022/04/01 11:15:28;;;;;;;4.00;2.30;;;5.20;99.90;;;5.05;65.37;99989.84;5186772;28;20056;-65
2022/04/01 11:18:11;;;;;;;5.15;2.22;;;5.20;99.60;;;5.18;64.42;99981.81;5186725;28;20096;-66